createdAt,value
2023-05-16T00:01:38.263Z,3.07
2023-05-16T00:04:06.719Z,2.40
2023-05-16T00:06:35.717Z,2.50
2023-05-16T00:09:03.786Z,2.70
2023-05-16T00:11:31.738Z,3.07
2023-05-16T00:14:01.605Z,3.30
2023-05-16T00:16:30.571Z,3.70
2023-05-16T00:18:59.944Z,3.23
2023-05-16T00:21:27.976Z,3.40
2023-05-16T00:23:55.928Z,2.70
2023-05-16T00:26:23.872Z,2.60
2023-05-16T00:28:51.782Z,3.33
2023-05-16T00:31:21.191Z,2.47
2023-05-16T00:33:49.361Z,2.03
2023-05-16T00:36:17.334Z,3.10
2023-05-16T00:38:45.512Z,3.10
2023-05-16T00:41:13.485Z,2.50
2023-05-16T00:43:41.442Z,2.60
2023-05-16T00:46:09.463Z,2.77
2023-05-16T00:48:38.840Z,2.60
2023-05-16T00:51:09.438Z,2.53
2023-05-16T00:53:37.728Z,2.10
2023-05-16T00:56:06.641Z,2.23
2023-05-16T00:58:34.579Z,2.40
2023-05-16T01:01:03.899Z,2.17
2023-05-16T01:03:32.160Z,2.90
2023-05-16T01:06:01.605Z,2.30
2023-05-16T01:08:29.583Z,2.10
2023-05-16T01:11:02.236Z,2.80
2023-05-16T01:13:33.295Z,2.10
2023-05-16T01:16:06.128Z,2.47
2023-05-16T01:18:38.852Z,2.37
2023-05-16T01:21:09.788Z,2.00
2023-05-16T01:23:43.632Z,2.00
2023-05-16T01:26:19.995Z,2.10
2023-05-16T01:28:48.036Z,2.37
2023-05-16T01:31:16.339Z,2.43
2023-05-16T01:33:44.290Z,2.73
2023-05-16T01:36:15.576Z,3.00
2023-05-16T01:38:50.062Z,2.37
2023-05-16T01:41:22.021Z,2.40
2023-05-16T01:43:52.781Z,2.40
2023-05-16T01:46:22.932Z,2.60
2023-05-16T01:48:54.186Z,2.20
2023-05-16T01:51:23.359Z,2.73
2023-05-16T01:53:51.465Z,2.10
2023-05-16T01:56:21.442Z,2.50
2023-05-16T01:58:49.376Z,2.37
2023-05-16T02:01:17.475Z,2.40
2023-05-16T02:03:45.598Z,2.97
2023-05-16T02:06:13.554Z,2.57
2023-05-16T02:08:41.503Z,2.50
2023-05-16T02:11:09.450Z,2.43
2023-05-16T02:13:38.769Z,3.50
2023-05-16T02:16:07.007Z,2.70
2023-05-16T02:18:35.079Z,2.70
2023-05-16T02:21:02.971Z,3.70
2023-05-16T02:23:30.926Z,3.47
2023-05-16T02:25:58.816Z,2.73
2023-05-16T02:28:26.726Z,3.03
2023-05-16T02:30:59.569Z,2.33
2023-05-16T02:33:27.574Z,3.03
2023-05-16T02:35:55.676Z,2.80
2023-05-16T02:38:23.580Z,3.70
2023-05-16T02:40:51.597Z,2.40
2023-05-16T02:43:19.563Z,3.00
2023-05-16T02:45:47.499Z,3.20
2023-05-16T02:48:16.839Z,3.17
2023-05-16T02:50:44.753Z,3.70
2023-05-16T02:53:12.872Z,3.50
2023-05-16T02:55:40.885Z,4.00
2023-05-16T02:58:09.185Z,3.40
2023-05-16T03:00:37.484Z,4.37
2023-05-16T03:03:06.062Z,8.20
2023-05-16T03:05:35.553Z,5.13
2023-05-16T03:08:03.443Z,4.90
2023-05-16T03:10:31.308Z,5.07
2023-05-16T03:12:59.268Z,4.47
2023-05-16T03:15:27.400Z,4.00
2023-05-16T03:17:55.544Z,3.20
2023-05-16T03:20:23.456Z,3.40
2023-05-16T03:22:52.700Z,3.17
2023-05-16T03:25:20.615Z,3.10
2023-05-16T03:27:48.529Z,3.43
2023-05-16T03:30:16.461Z,3.90
2023-05-16T03:32:45.997Z,5.13
2023-05-16T03:35:13.958Z,3.93
2023-05-16T03:37:41.864Z,3.90
2023-05-16T03:40:12.506Z,3.60
2023-05-16T03:42:40.433Z,4.00
2023-05-16T03:45:09.280Z,3.63
2023-05-16T03:47:37.247Z,4.37
2023-05-16T03:50:06.015Z,3.00
2023-05-16T03:52:34.550Z,3.27
2023-05-16T03:55:03.993Z,3.27
2023-05-16T03:57:33.586Z,3.80
2023-05-16T04:00:01.570Z,3.43
2023-05-16T04:02:29.558Z,6.63
2023-05-16T04:04:57.544Z,4.47
2023-05-16T04:07:25.726Z,4.30
2023-05-16T04:09:53.652Z,3.03
2023-05-16T04:12:21.741Z,2.70
2023-05-16T04:14:51.068Z,4.10
2023-05-16T04:17:19.209Z,3.03
2023-05-16T04:19:47.104Z,3.87
2023-05-16T04:22:15.025Z,3.20
2023-05-16T04:24:42.999Z,3.03
2023-05-16T04:27:10.908Z,2.90
2023-05-16T04:29:38.861Z,2.80
2023-05-16T04:32:08.994Z,4.30
2023-05-16T04:34:39.705Z,4.40
2023-05-16T04:37:09.532Z,4.27
2023-05-16T04:39:37.948Z,3.13
2023-05-16T04:42:06.739Z,2.93
2023-05-16T04:44:34.710Z,3.30
2023-05-16T04:47:02.910Z,3.37
2023-05-16T04:49:32.200Z,2.73
2023-05-16T04:52:00.276Z,3.10
2023-05-16T04:54:28.447Z,2.57
2023-05-16T04:56:57.334Z,2.60
2023-05-16T04:59:25.234Z,2.90
2023-05-16T05:01:53.301Z,2.77
2023-05-16T05:04:21.208Z,2.57
2023-05-16T05:06:50.456Z,3.00
2023-05-16T05:09:18.410Z,2.57
2023-05-16T05:11:46.460Z,2.97
2023-05-16T05:14:14.416Z,1.87
2023-05-16T05:16:42.312Z,2.47
2023-05-16T05:19:10.380Z,3.10
2023-05-16T05:21:38.359Z,2.40
2023-05-16T05:24:08.046Z,2.33
2023-05-16T05:26:35.987Z,2.70
2023-05-16T05:29:05.684Z,2.63
2023-05-16T05:31:35.145Z,3.00
2023-05-16T05:34:03.976Z,3.20
2023-05-16T05:36:32.118Z,4.10
2023-05-16T05:39:00.016Z,2.43
2023-05-16T05:41:29.333Z,2.40
2023-05-16T05:43:57.257Z,3.23
2023-05-16T05:46:25.726Z,3.20
2023-05-16T05:48:53.749Z,2.87
2023-05-16T05:51:21.707Z,2.90
2023-05-16T05:53:50.065Z,2.97
2023-05-16T05:56:18.282Z,2.60
2023-05-16T05:58:47.629Z,2.93
2023-05-16T06:01:15.692Z,2.50
2023-05-16T06:03:43.687Z,2.70
2023-05-16T06:06:11.696Z,3.07
2023-05-16T06:08:39.568Z,2.77
2023-05-16T06:11:07.498Z,2.50
2023-05-16T06:13:35.510Z,2.53
2023-05-16T06:16:06.585Z,2.63
2023-05-16T06:18:35.538Z,3.43
2023-05-16T06:21:03.622Z,2.40
2023-05-16T06:23:31.715Z,2.83
2023-05-16T06:25:59.648Z,3.10
2023-05-16T06:28:27.606Z,2.80
2023-05-16T06:30:55.637Z,2.30
2023-05-16T06:33:24.958Z,3.30
2023-05-16T06:35:53.090Z,2.30
2023-05-16T06:38:21.077Z,2.10
2023-05-16T06:40:49.332Z,2.90
2023-05-16T06:43:17.308Z,2.20
2023-05-16T06:45:46.717Z,3.37
2023-05-16T06:48:15.093Z,2.27
2023-05-16T06:50:48.262Z,3.10
2023-05-16T06:53:16.246Z,2.93
2023-05-16T06:55:44.808Z,2.60
2023-05-16T06:58:12.818Z,2.70
2023-05-16T07:00:40.867Z,2.97
2023-05-16T07:03:08.924Z,2.80
2023-05-16T07:05:36.991Z,2.30
2023-05-16T07:08:07.960Z,3.27
2023-05-16T07:10:36.249Z,2.40
2023-05-16T07:13:05.214Z,1.90
2023-05-16T07:15:33.234Z,2.83
2023-05-16T07:18:01.294Z,2.60
2023-05-16T07:20:29.376Z,2.50
2023-05-16T07:22:59.438Z,2.53
2023-05-16T07:25:29.269Z,2.20
2023-05-16T07:27:57.341Z,2.80
2023-05-16T07:30:25.555Z,2.90
2023-05-16T07:32:53.728Z,2.90
2023-05-16T07:35:21.872Z,2.73
2023-05-16T07:37:49.862Z,2.97
2023-05-16T07:40:18.589Z,3.07
2023-05-16T07:42:47.964Z,2.77
2023-05-16T07:45:15.964Z,2.93
2023-05-16T07:47:44.027Z,4.30
2023-05-16T07:50:12.217Z,2.70
2023-05-16T07:52:40.240Z,2.30
2023-05-16T07:55:09.661Z,2.17
2023-05-16T07:57:37.708Z,2.13
2023-05-16T08:00:09.504Z,3.23
2023-05-16T08:02:37.602Z,2.80
2023-05-16T08:05:06.551Z,2.53
2023-05-16T08:07:34.617Z,2.73
2023-05-16T08:10:02.573Z,3.07
2023-05-16T08:12:31.076Z,2.80
2023-05-16T08:14:59.078Z,2.97
2023-05-16T08:17:28.479Z,3.30
2023-05-16T08:19:56.746Z,2.70
2023-05-16T08:22:24.706Z,2.80
2023-05-16T08:24:53.091Z,2.47
2023-05-16T08:27:21.254Z,2.90
2023-05-16T08:29:49.227Z,2.47
2023-05-16T08:32:17.429Z,3.03
2023-05-16T08:34:46.827Z,2.80
2023-05-16T08:37:16.648Z,2.80
2023-05-16T08:39:45.344Z,2.50
2023-05-16T08:42:13.408Z,2.17
2023-05-16T08:44:41.420Z,3.33
2023-05-16T08:47:15.502Z,2.93
2023-05-16T08:49:43.582Z,2.63
2023-05-16T08:52:12.936Z,2.53
2023-05-16T08:54:40.993Z,3.10
2023-05-16T08:57:09.038Z,3.10
2023-05-16T08:59:36.994Z,2.33
2023-05-16T09:02:05.128Z,2.33
2023-05-16T09:04:33.099Z,2.83
2023-05-16T09:07:01.126Z,2.10
2023-05-16T09:09:30.584Z,2.83
2023-05-16T09:11:58.637Z,2.60
2023-05-16T09:14:26.667Z,2.33
2023-05-16T09:17:04.961Z,2.43
2023-05-16T09:19:38.695Z,2.17
2023-05-16T09:22:07.583Z,2.47
2023-05-16T09:24:39.383Z,2.57
2023-05-16T09:27:10.998Z,2.43
2023-05-16T09:29:38.995Z,2.23
2023-05-16T09:32:11.434Z,3.57
2023-05-16T09:34:41.056Z,2.97
2023-05-16T09:37:10.656Z,2.67
2023-05-16T09:39:40.584Z,3.20
2023-05-16T09:42:11.805Z,2.63
2023-05-16T09:44:39.851Z,3.33
2023-05-16T09:47:07.859Z,2.27
2023-05-16T09:49:38.547Z,2.40
2023-05-16T09:52:06.952Z,2.70
2023-05-16T09:54:35.533Z,3.20
2023-05-16T09:57:04.890Z,2.70
2023-05-16T09:59:32.956Z,3.00
2023-05-16T10:02:01.315Z,3.00
2023-05-16T10:04:29.517Z,2.63
2023-05-16T10:06:58.280Z,3.63
2023-05-16T10:09:26.286Z,2.70
2023-05-16T10:11:54.467Z,2.70
2023-05-16T10:14:23.910Z,3.00
2023-05-16T10:16:52.083Z,2.77
2023-05-16T10:19:21.604Z,3.00
2023-05-16T10:21:53.026Z,3.37
2023-05-16T10:24:29.370Z,2.77
2023-05-16T10:26:57.360Z,2.83
2023-05-16T10:29:27.053Z,3.00
2023-05-16T10:31:55.064Z,2.33
2023-05-16T10:34:23.182Z,2.33
2023-05-16T10:36:51.144Z,3.30
2023-05-16T10:39:19.280Z,2.57
2023-05-16T10:41:47.275Z,3.67
2023-05-16T10:44:16.417Z,2.80
2023-05-16T10:46:45.813Z,2.70
2023-05-16T10:49:23.783Z,5.00
2023-05-16T10:52:05.293Z,2.77
2023-05-16T10:54:37.496Z,3.13
2023-05-16T10:57:10.257Z,3.60
2023-05-16T10:59:42.490Z,2.93
2023-05-16T11:02:25.071Z,3.37
2023-05-16T11:04:53.137Z,2.90
2023-05-16T11:07:22.118Z,2.57
2023-05-16T11:10:11.065Z,3.27
2023-05-16T11:12:40.174Z,3.70
2023-05-16T11:15:21.495Z,2.53
2023-05-16T11:17:51.015Z,3.07
2023-05-16T11:20:28.678Z,3.03
2023-05-16T11:23:26.874Z,2.97
2023-05-16T11:25:56.648Z,3.37
2023-05-16T11:28:25.726Z,2.60
2023-05-16T11:30:56.225Z,2.80
2023-05-16T11:33:25.753Z,2.50
2023-05-16T11:36:13.864Z,2.17
2023-05-16T11:38:44.008Z,2.20
2023-05-16T11:41:12.468Z,2.73
2023-05-16T11:43:41.880Z,2.03
2023-05-16T11:46:12.637Z,2.43
2023-05-16T11:48:42.017Z,3.10
2023-05-16T11:51:10.776Z,2.33
2023-05-16T11:53:39.763Z,2.67
2023-05-16T11:56:09.555Z,2.60
2023-05-16T11:58:38.495Z,3.43
2023-05-16T12:01:06.842Z,2.37
2023-05-16T12:03:36.176Z,2.37
2023-05-16T12:06:05.856Z,2.20
2023-05-16T12:08:34.352Z,2.93
2023-05-16T12:11:02.341Z,2.27
2023-05-16T12:13:30.346Z,2.40
2023-05-16T12:15:58.695Z,1.90
2023-05-16T12:18:27.097Z,3.00
2023-05-16T12:20:55.182Z,2.00
2023-05-16T12:23:24.481Z,1.93
2023-05-16T12:25:55.576Z,2.33
2023-05-16T12:28:23.504Z,1.90
2023-05-16T12:30:51.478Z,2.10
2023-05-16T12:33:19.491Z,2.77
2023-05-16T12:35:48.012Z,1.93
2023-05-16T12:38:17.555Z,3.30
2023-05-16T12:40:47.358Z,2.57
2023-05-16T12:43:16.071Z,2.87
2023-05-16T12:45:44.468Z,3.03
2023-05-16T12:48:15.369Z,2.30
2023-05-16T12:50:43.391Z,1.63
2023-05-16T12:53:13.097Z,2.23
2023-05-16T12:55:41.218Z,2.10
2023-05-16T12:58:10.748Z,1.80
2023-05-16T13:00:39.225Z,1.87
2023-05-16T13:03:07.852Z,2.53
2023-05-16T13:05:36.706Z,2.63
2023-05-16T13:08:05.035Z,2.80
2023-05-16T13:10:33.231Z,2.33
2023-05-16T13:13:01.468Z,2.47
2023-05-16T13:15:31.186Z,2.50
2023-05-16T13:17:59.385Z,1.97
2023-05-16T13:20:28.299Z,2.07
2023-05-16T13:22:56.548Z,2.00
2023-05-16T13:25:24.531Z,2.70
2023-05-16T13:27:52.474Z,2.20
2023-05-16T13:30:20.503Z,2.10
2023-05-16T13:32:49.940Z,3.17
2023-05-16T13:35:18.129Z,2.37
2023-05-16T13:37:46.522Z,2.60
2023-05-16T13:40:14.661Z,3.33
2023-05-16T13:42:45.585Z,2.27
2023-05-16T13:45:13.704Z,2.20
2023-05-16T13:47:41.697Z,2.40
2023-05-16T13:50:12.382Z,2.20
2023-05-16T13:52:40.468Z,2.80
2023-05-16T13:55:09.709Z,2.57
2023-05-16T13:57:37.781Z,2.50
2023-05-16T14:00:35.467Z,1.80
2023-05-16T14:03:00.656Z,2.40
2023-05-16T14:05:30.273Z,2.03
2023-05-16T14:07:58.258Z,2.20
2023-05-16T14:10:26.749Z,2.17
2023-05-16T14:12:55.006Z,3.80
2023-05-16T14:15:23.003Z,5.00
2023-05-16T14:17:51.133Z,2.37
2023-05-16T14:20:19.159Z,2.90
2023-05-16T14:22:48.536Z,2.80
2023-05-16T14:25:16.602Z,2.27
2023-05-16T14:27:44.536Z,2.90
2023-05-16T14:30:13.449Z,2.00
2023-05-16T14:32:41.543Z,3.03
2023-05-16T14:35:10.578Z,2.17
2023-05-16T14:37:38.750Z,2.50
2023-05-16T14:40:10.449Z,2.97
2023-05-16T14:42:38.506Z,3.37
2023-05-16T14:45:07.469Z,2.20
2023-05-16T14:47:35.514Z,2.73
2023-05-16T14:50:03.674Z,3.17
2023-05-16T14:52:31.752Z,2.83
2023-05-16T14:54:59.807Z,3.63
2023-05-16T14:57:29.594Z,2.20
2023-05-16T14:59:58.647Z,2.23
2023-05-16T15:02:27.103Z,1.90
2023-05-16T15:04:55.446Z,2.40
2023-05-16T15:07:23.454Z,2.43
2023-05-16T15:09:51.404Z,3.43
2023-05-16T15:12:19.352Z,1.83
2023-05-16T15:14:48.807Z,2.37
2023-05-16T15:17:16.770Z,1.70
2023-05-16T15:19:44.759Z,1.80
2023-05-16T15:22:12.750Z,1.77
2023-05-16T15:24:40.868Z,1.80
2023-05-16T15:27:08.919Z,2.40
2023-05-16T15:29:36.848Z,2.17
2023-05-16T15:32:07.203Z,2.60
2023-05-16T15:34:36.370Z,2.00
2023-05-16T15:37:04.408Z,1.77
2023-05-16T15:39:32.445Z,2.20
2023-05-16T15:42:10.617Z,2.27
2023-05-16T15:44:40.479Z,1.90
2023-05-16T15:47:10.770Z,1.93
2023-05-16T15:49:38.740Z,1.97
2023-05-16T15:52:06.799Z,1.70
2023-05-16T15:54:34.823Z,1.90
2023-05-16T15:57:03.901Z,2.60
2023-05-16T15:59:31.896Z,2.07
2023-05-16T16:01:59.864Z,3.87
2023-05-16T16:04:29.285Z,3.57
2023-05-16T16:06:57.277Z,2.70
2023-05-16T16:09:25.351Z,3.20
2023-05-16T16:11:56.408Z,2.63
2023-05-16T16:14:25.350Z,3.20
2023-05-16T16:16:53.344Z,4.00
2023-05-16T16:19:21.480Z,2.27
2023-05-16T16:21:51.218Z,3.80
2023-05-16T16:24:20.193Z,3.53
2023-05-16T16:26:48.199Z,3.80
2023-05-16T16:29:16.333Z,2.97
2023-05-16T16:31:44.447Z,3.03
2023-05-16T16:34:12.513Z,4.20
2023-05-16T16:36:40.906Z,3.93
2023-05-16T16:39:10.338Z,4.00
2023-05-16T16:41:38.407Z,4.53
2023-05-16T16:44:06.748Z,4.30
2023-05-16T16:46:35.015Z,3.50
2023-05-16T16:49:03.156Z,4.07
2023-05-16T16:51:31.211Z,3.10
2023-05-16T16:53:59.822Z,4.53
2023-05-16T16:56:30.085Z,3.67
2023-05-16T16:58:58.019Z,2.63
2023-05-16T17:01:28.990Z,3.20
2023-05-16T17:03:57.978Z,4.13
2023-05-16T17:06:26.449Z,16.27
2023-05-16T17:08:54.728Z,15.80
2023-05-16T17:11:23.649Z,5.80
2023-05-16T17:13:55.303Z,4.10
2023-05-16T17:16:23.354Z,6.30
2023-05-16T17:18:52.444Z,5.97
2023-05-16T17:21:21.053Z,5.90
2023-05-16T17:23:50.490Z,4.40
2023-05-16T17:26:18.514Z,4.13
2023-05-16T17:28:46.628Z,3.37
2023-05-16T17:31:15.956Z,4.40
2023-05-16T17:33:44.484Z,3.30
2023-05-16T17:36:12.478Z,3.90
2023-05-16T17:38:40.446Z,3.50
2023-05-16T17:41:08.389Z,4.10
2023-05-16T17:43:36.363Z,5.10
2023-05-16T17:46:04.346Z,3.80
2023-05-16T17:48:33.844Z,3.40
2023-05-16T17:51:02.444Z,3.70
2023-05-16T17:53:30.744Z,3.77
2023-05-16T17:55:58.720Z,3.20
2023-05-16T17:58:26.877Z,2.37
2023-05-16T18:00:55.265Z,2.73
2023-05-16T18:03:23.313Z,2.77
2023-05-16T18:05:52.792Z,2.10
2023-05-16T18:08:21.275Z,2.00
2023-05-16T18:10:52.437Z,2.60
2023-05-16T18:13:20.716Z,1.80
2023-05-16T18:15:48.685Z,1.97
2023-05-16T18:18:17.570Z,1.70
2023-05-16T18:20:46.237Z,2.60
2023-05-16T18:23:15.663Z,2.50
2023-05-16T18:25:43.664Z,1.83
2023-05-16T18:28:11.720Z,2.50
2023-05-16T18:30:39.660Z,2.60
2023-05-16T18:33:07.729Z,3.30
2023-05-16T18:35:35.745Z,2.47
2023-05-16T18:38:04.127Z,2.60
2023-05-16T18:40:33.885Z,2.43
2023-05-16T18:43:01.998Z,2.63
2023-05-16T18:45:30.320Z,2.67
2023-05-16T18:47:58.579Z,2.83
2023-05-16T18:50:27.814Z,3.13
2023-05-16T18:52:57.621Z,2.40
2023-05-16T18:55:25.824Z,2.50
2023-05-16T18:57:55.301Z,2.40
2023-05-16T19:00:23.444Z,2.60
2023-05-16T19:02:51.879Z,3.93
2023-05-16T19:05:20.058Z,3.07
2023-05-16T19:07:48.152Z,2.57
2023-05-16T19:10:16.124Z,3.57
2023-05-16T19:12:46.852Z,2.50
2023-05-16T19:15:16.242Z,3.20
2023-05-16T19:17:44.320Z,2.80
2023-05-16T19:20:12.549Z,2.40
2023-05-16T19:22:40.587Z,2.60
2023-05-16T19:25:09.295Z,3.00
2023-05-16T19:27:37.300Z,2.57
2023-05-16T19:30:06.098Z,2.87
2023-05-16T19:32:35.452Z,3.40
2023-05-16T19:35:04.190Z,2.80
2023-05-16T19:37:32.224Z,3.97
2023-05-16T19:40:00.177Z,3.10
2023-05-16T19:42:28.172Z,3.77
2023-05-16T19:44:56.112Z,3.00
2023-05-16T19:47:24.335Z,3.07
2023-05-16T19:49:53.705Z,2.90
2023-05-16T19:52:21.673Z,2.70
2023-05-16T19:54:49.768Z,3.07
2023-05-16T19:57:17.741Z,2.33
2023-05-16T19:59:45.716Z,3.30
2023-05-16T20:02:14.970Z,2.67
2023-05-16T20:04:43.144Z,3.27
2023-05-16T20:07:12.645Z,4.70
2023-05-16T20:09:40.720Z,4.10
2023-05-16T20:12:09.648Z,3.37
2023-05-16T20:14:37.647Z,3.90
2023-05-16T20:17:05.846Z,4.20
2023-05-16T20:19:35.496Z,3.17
2023-05-16T20:22:03.765Z,4.03
2023-05-16T20:24:33.155Z,2.90
2023-05-16T20:27:01.557Z,2.87
2023-05-16T20:29:30.444Z,4.20
2023-05-16T20:31:58.513Z,2.97
2023-05-16T20:34:26.574Z,3.03
2023-05-16T20:36:54.608Z,2.73
2023-05-16T20:39:22.594Z,2.40
2023-05-16T20:41:51.947Z,2.73
2023-05-16T20:44:19.946Z,2.70
2023-05-16T20:46:48.002Z,2.30
2023-05-16T20:49:16.009Z,2.40
2023-05-16T20:51:44.011Z,2.33
2023-05-16T20:54:12.934Z,2.50
2023-05-16T20:56:41.055Z,2.33
2023-05-16T20:59:10.411Z,3.13
2023-05-16T21:01:38.391Z,2.60
2023-05-16T21:04:06.518Z,3.53
2023-05-16T21:06:34.520Z,3.07
2023-05-16T21:09:02.753Z,2.87
2023-05-16T21:11:32.798Z,2.03
2023-05-16T21:14:00.740Z,2.80
2023-05-16T21:16:31.251Z,3.07
2023-05-16T21:19:01.698Z,3.20
2023-05-16T21:21:29.960Z,2.40
2023-05-16T21:23:57.970Z,2.60
2023-05-16T21:26:28.714Z,3.83
2023-05-16T21:28:56.646Z,2.40
2023-05-16T21:31:24.590Z,3.20
2023-05-16T21:33:53.997Z,3.17
2023-05-16T21:36:22.331Z,2.67
2023-05-16T21:38:50.377Z,2.37
2023-05-16T21:41:18.418Z,2.67
2023-05-16T21:43:46.371Z,2.43
2023-05-16T21:46:14.516Z,2.83
2023-05-16T21:48:42.534Z,2.13
2023-05-16T21:51:11.976Z,3.10
2023-05-16T21:53:39.937Z,3.17
2023-05-16T21:56:08.146Z,2.60
2023-05-16T21:58:36.079Z,3.13
2023-05-16T22:01:04.088Z,2.80
2023-05-16T22:03:32.177Z,2.70
2023-05-16T22:06:00.236Z,2.30
2023-05-16T22:08:29.666Z,2.80
2023-05-16T22:10:57.692Z,2.10
2023-05-16T22:13:25.891Z,2.03
2023-05-16T22:16:03.903Z,1.40
2023-05-16T22:18:33.344Z,1.87
2023-05-16T22:21:01.818Z,1.33
2023-05-16T22:23:31.266Z,1.93
2023-05-16T22:25:59.233Z,2.00
2023-05-16T22:28:27.370Z,1.33
2023-05-16T22:30:55.382Z,2.43
2023-05-16T22:33:24.193Z,2.10
2023-05-16T22:35:52.285Z,2.70
2023-05-16T22:38:20.276Z,2.60
2023-05-16T22:40:49.618Z,2.20
2023-05-16T22:43:17.602Z,2.20
2023-05-16T22:45:45.576Z,2.20
2023-05-16T22:48:13.775Z,1.57
2023-05-16T22:50:41.844Z,2.60
2023-05-16T22:53:09.812Z,2.43
2023-05-16T22:55:37.810Z,2.93
2023-05-16T22:58:07.265Z,2.07
2023-05-16T23:00:35.253Z,2.50
2023-05-16T23:03:03.326Z,2.40
2023-05-16T23:05:31.384Z,3.40
2023-05-16T23:07:59.459Z,4.03
2023-05-16T23:10:27.404Z,2.40
2023-05-16T23:12:55.535Z,2.60
2023-05-16T23:15:24.910Z,4.20
2023-05-16T23:17:52.998Z,2.97
2023-05-16T23:20:21.059Z,2.10
2023-05-16T23:22:48.996Z,2.63
2023-05-16T23:25:16.982Z,3.30
2023-05-16T23:27:44.963Z,2.80
2023-05-16T23:30:13.508Z,2.60
2023-05-16T23:32:42.860Z,3.13
2023-05-16T23:35:10.936Z,2.40
2023-05-16T23:37:38.895Z,2.23
2023-05-16T23:40:08.293Z,3.10
2023-05-16T23:42:36.780Z,2.77
2023-05-16T23:45:05.179Z,3.20
2023-05-16T23:47:33.261Z,4.60
2023-05-16T23:50:03.618Z,3.80
2023-05-16T23:52:31.622Z,3.13
2023-05-16T23:54:59.579Z,3.90
2023-05-16T23:57:27.584Z,4.27
2023-05-16T23:59:55.597Z,3.50
